»·PEaware :: UAL1643 KLAS-KSFO

UAL1643 :: KLAS-KSFO

FLIGHT INFORMATION

Flight Status: Arrived
Operator:
United Airlines
More flights by this operator :: More flights under this callsign
Pilot: Jac C. (16067)
Aircraft: BOEING 737-800
(B738)
More flights by this aircraft type
Origin: KLAS McCarran Intl
United States
Destination: KSFO San Francisco Intl
United States
More flights between these airports :: More routes between these airports
Route: SHEAD1 KENNO RUSME DYAMD3
File this flight plan on PilotEdge
Remarks: PBN / A1B1C1D1S1S2 DOF / 180611 REG / N806SB EET / KZOA0024 OPR / UAL PER / C RMK / TCAS
Altitude:
(Current/Filed)
40,000ft
Speed:
(Current/Filed)
442kts
Departed: 10-Jun-18 06:53 PM
Arrived: 10-Jun-18 08:04 PM
Distance/Time
Traveled:
359nm/1:11
Distance/Time
To Go:
Arrived

Flight Plot

Page will automatically refresh every two minutes.

Flight plan parsing failed; only flown route is shown


Map Options




Map Legend


Flown Route
Filed Route
Departure Airport
Arrival Airport
Navaid (VOR, NDB)
Fix

Horizontal Profiles

Position Reports

Time Latitude Longitude Heading Altitude Ground
Speed
10-Jun-18 18:10 36.083207 -115.140187 129 2188ft 0kts
10-Jun-18 18:11 36.083207 -115.140187 129 2188ft 0kts
10-Jun-18 18:12 36.083207 -115.140187 129 2188ft 0kts
10-Jun-18 18:13 36.083207 -115.140187 129 2188ft 0kts
10-Jun-18 18:14 36.083207 -115.140187 129 2188ft 0kts
10-Jun-18 18:15 36.083207 -115.140187 129 2188ft 0kts
10-Jun-18 18:16 36.083207 -115.140187 129 2188ft 0kts
10-Jun-18 18:17 36.083207 -115.140187 129 2188ft 0kts
10-Jun-18 18:18 36.083207 -115.140187 129 2188ft 0kts
10-Jun-18 18:19 36.083207 -115.140187 129 2188ft 0kts
10-Jun-18 18:20 36.083207 -115.140187 129 2188ft 0kts
10-Jun-18 18:21 36.083207 -115.140187 129 2188ft 0kts
10-Jun-18 18:22 36.083207 -115.140187 129 2188ft 0kts
10-Jun-18 18:23 36.083207 -115.140187 129 2188ft 0kts
10-Jun-18 18:24 36.083207 -115.140187 129 2188ft 0kts
10-Jun-18 18:25 36.083207 -115.140187 129 2188ft 0kts
10-Jun-18 18:26 36.083207 -115.140187 129 2189ft 0kts
10-Jun-18 18:27 36.083207 -115.140187 129 2189ft 0kts
10-Jun-18 18:28 36.083207 -115.140187 129 2189ft 0kts
10-Jun-18 18:29 36.083207 -115.140187 129 2189ft 0kts
10-Jun-18 18:30 36.083207 -115.140187 129 2189ft 0kts
10-Jun-18 18:31 36.083207 -115.140187 129 2189ft 0kts
10-Jun-18 18:32 36.083207 -115.140187 129 2189ft 0kts
10-Jun-18 18:33 36.083207 -115.140187 129 2189ft 0kts
10-Jun-18 18:34 36.083207 -115.140187 129 2189ft 0kts
10-Jun-18 18:35 36.083207 -115.140187 129 2189ft 0kts
10-Jun-18 18:36 36.083207 -115.140187 129 2189ft 0kts
10-Jun-18 18:37 36.083207 -115.140187 129 2189ft 0kts
10-Jun-18 18:38 36.083207 -115.140187 129 2189ft 0kts
10-Jun-18 18:39 36.083357 -115.140408 129 2189ft 2kts
10-Jun-18 18:40 36.083769 -115.141012 129 2189ft 1kts
10-Jun-18 18:41 36.083786 -115.141038 129 2189ft 0kts
10-Jun-18 18:42 36.083786 -115.141038 129 2189ft 0kts
10-Jun-18 18:43 36.083786 -115.141038 129 2189ft 0kts
10-Jun-18 18:44 36.083786 -115.141038 129 2189ft 0kts
10-Jun-18 18:45 36.083048 -115.141533 206 2189ft 9kts
10-Jun-18 18:46 36.079340 -115.141607 180 2189ft 10kts
10-Jun-18 18:47 36.078825 -115.141605 178 2189ft 0kts
10-Jun-18 18:48 36.078281 -115.141136 101 2189ft 11kts
10-Jun-18 18:49 36.078283 -115.135571 90 2189ft 15kts
10-Jun-18 18:50 36.078279 -115.129939 90 2189ft 19kts
10-Jun-18 18:51 36.078296 -115.123663 88 2189ft 18kts
10-Jun-18 18:52 36.076445 -115.121497 238 2189ft 8kts
10-Jun-18 18:53 36.076286 -115.155725 271 3322ft 162kts
10-Jun-18 18:54 36.076273 -115.219124 271 5391ft 229kts
10-Jun-18 18:55 36.029683 -115.278641 186 7139ft 285kts
10-Jun-18 18:56 35.958376 -115.316336 219 7756ft 285kts
10-Jun-18 18:57 35.901372 -115.386587 228 10970ft 308kts
10-Jun-18 18:58 35.886730 -115.492141 269 13478ft 322kts
10-Jun-18 18:59 35.889605 -115.604783 267 17296ft 333kts
10-Jun-18 19:00 35.891876 -115.721593 266 19568ft 347kts
10-Jun-18 19:01 35.893801 -115.841516 266 22732ft 357kts
10-Jun-18 19:02 35.905020 -115.965457 292 25414ft 385kts
10-Jun-18 19:03 35.980347 -116.066256 309 27777ft 409kts
10-Jun-18 19:04 36.063757 -116.164101 309 29824ft 419kts
10-Jun-18 19:05 36.149813 -116.264113 309 31553ft 428kts
10-Jun-18 19:06 36.236608 -116.364225 309 33517ft 425kts
10-Jun-18 19:07 36.322473 -116.464001 307 35358ft 421kts
10-Jun-18 19:08 36.407294 -116.563159 307 36931ft 420kts
10-Jun-18 19:09 36.491860 -116.662086 307 38402ft 417kts
10-Jun-18 19:10 36.579058 -116.758307 316 39623ft 428kts
10-Jun-18 19:11 36.681647 -116.837261 319 39997ft 436kts
10-Jun-18 19:12 36.784145 -116.915391 319 40001ft 431kts
10-Jun-18 19:13 36.886825 -116.993763 319 40002ft 432kts
10-Jun-18 19:14 36.989509 -117.072215 319 40004ft 433kts
10-Jun-18 19:15 37.075052 -117.137702 319 39984ft 433kts
10-Jun-18 19:16 37.177827 -117.216929 319 39976ft 433kts
10-Jun-18 19:17 37.280205 -117.296184 318 39975ft 433kts
10-Jun-18 19:18 37.372394 -117.389213 310 39973ft 424kts
10-Jun-18 19:19 37.474569 -117.504189 296 39976ft 408kts
10-Jun-18 19:20 37.498832 -117.612530 271 39972ft 384kts
10-Jun-18 19:21 37.511315 -117.745785 270 39961ft 383kts
10-Jun-18 19:22 37.522599 -117.880012 270 39951ft 384kts
10-Jun-18 19:23 37.533617 -118.013801 270 39941ft 384kts
10-Jun-18 19:24 37.544488 -118.147721 270 39934ft 384kts
10-Jun-18 19:25 37.555031 -118.282073 269 39931ft 384kts
10-Jun-18 19:26 37.565308 -118.416018 269 39941ft 384kts
10-Jun-18 19:27 37.575431 -118.550364 269 39963ft 384kts
10-Jun-18 19:28 37.585374 -118.684509 270 39996ft 384kts
10-Jun-18 19:29 37.595166 -118.818733 270 40018ft 385kts
10-Jun-18 19:30 37.604845 -118.953577 269 40017ft 385kts
10-Jun-18 19:31 37.614353 -119.088213 270 40014ft 386kts
10-Jun-18 19:32 37.623710 -119.222909 270 40023ft 386kts
10-Jun-18 19:33 37.632967 -119.358429 270 40028ft 387kts
10-Jun-18 19:34 37.642044 -119.493618 270 40034ft 387kts
10-Jun-18 19:35 37.650987 -119.629117 270 39944ft 388kts
10-Jun-18 19:36 37.659713 -119.763477 268 37698ft 381kts
10-Jun-18 19:37 37.668143 -119.895585 267 35409ft 371kts
10-Jun-18 19:38 37.676181 -120.021983 266 33581ft 352kts
10-Jun-18 19:39 37.683731 -120.142670 266 31879ft 336kts
10-Jun-18 19:40 37.690595 -120.257994 265 30281ft 324kts
10-Jun-18 19:41 37.697160 -120.370078 266 28748ft 316kts
10-Jun-18 19:42 37.690776 -120.477490 255 27151ft 305kts
10-Jun-18 19:43 37.677279 -120.593233 256 23582ft 348kts
10-Jun-18 19:44 37.663247 -120.711512 256 22149ft 332kts
10-Jun-18 19:45 37.649461 -120.827299 256 20606ft 333kts
10-Jun-18 19:46 37.635557 -120.941843 256 18856ft 326kts
10-Jun-18 19:47 37.621075 -121.053275 255 17133ft 320kts
10-Jun-18 19:48 37.606256 -121.163285 255 15438ft 317kts
10-Jun-18 19:49 37.591582 -121.272189 256 13947ft 309kts
10-Jun-18 19:50 37.580263 -121.373074 256 13762ft 270kts
10-Jun-18 19:51 37.569557 -121.465377 256 13113ft 277kts
10-Jun-18 19:52 37.558010 -121.563498 257 11772ft 285kts
10-Jun-18 19:53 37.542766 -121.660317 249 10770ft 267kts
10-Jun-18 19:54 37.521280 -121.748615 250 9439ft 260kts
10-Jun-18 19:55 37.499400 -121.839704 251 8264ft 280kts
10-Jun-18 19:56 37.481997 -121.909005 249 7472ft 266kts
10-Jun-18 19:57 37.461500 -121.996059 266 6517ft 246kts
10-Jun-18 19:58 37.491327 -122.072838 297 4962ft 238kts
10-Jun-18 19:59 37.521599 -122.143910 296 3737ft 223kts
10-Jun-18 20:00 37.549951 -122.211269 296 2582ft 212kts
10-Jun-18 20:01 37.573817 -122.268051 295 1598ft 153kts
10-Jun-18 20:02 37.591674 -122.310561 294 883ft 133kts
10-Jun-18 20:03 37.609443 -122.352908 294 169ft 135kts
10-Jun-18 20:04 37.619574 -122.377151 296 21ft 28kts
10-Jun-18 20:05 37.619372 -122.382072 215 21ft 7kts
10-Jun-18 20:06 37.618319 -122.381964 139 21ft 0kts
10-Jun-18 20:07 37.618319 -122.381964 139 21ft 0kts
10-Jun-18 20:08 37.618319 -122.381964 139 21ft 0kts

Navigation Log

Ident Type
Flight plan parsing failed, navigation log unavailable